• Join FlightAware (Why Join?)
  • Login
  • US Flag 
12:35PM EDT


 

Airport Tracker/Info


-or-


 

Live Flight TrackerFlight Track Log ✈ EGF4383 ✈ 27-Apr-2013 ✈ KCHO - KORD

Flight Track Log - Related Links

Times and Time Zones

All times are in EDT time to prevent confusion due to time zone crossing. See the EGF4383 flight status page for this flight to view local times or setup timezone preferences in your user account.

Time Position Orientation Groundspeed Altitude Reporting Facility
EDT Latitude Longitude Course Direction KTS MPH feet Rate Location/Type
05:27PM 38.1000 -78.4667 298° West 184 212 2,400  Level Potomac TRACON
05:28PM 38.0772 -78.5119 237° Southwest 217 250 4,700 2,940 Climbing Washington Center
05:29PM 38.2167 -78.6524 270° West  Level FlightAware Approximate
05:29PM 38.1108 -78.5897 299° West 240 276 7,300  Level Washington Center
05:30PM 38.2418 -78.7587 293° West  Level FlightAware Approximate
05:30PM 38.1383 -78.6542 298° West 261 300 8,900  Level Washington Center
05:31PM 38.2831 -78.8606 299° West  Level FlightAware Approximate
05:31PM 38.1739 -78.7375 299° West 267 307 8,900  Level Washington Center
05:32PM 38.3258 -78.9617 298° West  Level FlightAware Approximate
05:32PM 38.2069 -78.8208 297° West 267 307 9,000  Level Washington Center
05:33PM 38.3680 -79.0631 298° West  Level FlightAware Approximate
05:33PM 38.2461 -78.9125 299° West 267 307 9,000  Level Washington Center
05:34PM 38.2814 -78.9986 298° West 267 307 9,600 1,200 Climbing Washington Center
05:35PM 38.3203 -79.0906 298° West 279 321 11,400 1,680 Climbing Washington Center
05:36PM 38.3633 -79.1931 298° West 306 352 13,100 1,800 Climbing Washington Center
05:37PM 38.4039 -79.2931 297° West 333 383 15,100 1,980 Climbing Washington Center
05:38PM 38.4486 -79.4039 297° West 338 389 17,100 1,740 Climbing Washington Center
05:39PM 38.4931 -79.5097 298° West 343 395 18,600 1,680 Climbing Washington Center
05:40PM 38.5431 -79.6344 297° West 351 404 20,600 1,800 Climbing Washington Center
05:41PM 38.5892 -79.7514 297° West 356 410 22,300 1,560 Climbing Washington Center
05:42PM 38.6369 -79.8708 297° West 362 417 23,800 1,500 Climbing Washington Center
05:43PM 38.6850 -79.9881 298° West 367 422 25,300 1,500 Climbing Washington Center
05:44PM 38.7289 -80.0944 298° West 373 429 26,800 1,560 Climbing Washington Center
05:45PM 38.7697 -80.1958 297° West 367 422 28,200 1,560 Climbing Indianapolis Center
05:46PM 38.8139 -80.3086 297° West 358 412 29,700 1,440 Climbing Indianapolis Center
05:47PM 38.8586 -80.4200 297° West 352 405 31,200 1,080 Climbing Indianapolis Center
05:48PM 38.9042 -80.5344 297° West 359 413 32,000 360 Climbing Indianapolis Center
05:49PM 38.9500 -80.6506 297° West 365 420 32,000  Level Indianapolis Center
05:50PM 38.9950 -80.7614 298° West 354 407 32,000  Level Indianapolis Center
05:51PM 39.0503 -80.9000 297° West 364 419 32,000 240 Level Indianapolis Center
05:52PM 39.0986 -81.0153 298° West 369 425 32,600 780 Climbing Indianapolis Center
05:53PM 39.1486 -81.1344 298° West 381 438 33,600 900 Climbing Indianapolis Center
05:54PM 39.1981 -81.2564 298° West 386 444 34,500 900 Climbing Indianapolis Center
05:55PM 39.2469 -81.3767 298° West 382 440 35,500 720 Climbing Indianapolis Center
05:56PM 39.2939 -81.4983 297° West 381 438 36,000 240 Climbing Indianapolis Center
05:57PM 39.2908 -81.6269 268° West 362 417 36,000  Level Indianapolis Center
05:58PM 39.2769 -81.7853 264° West 369 425 36,000  Level Indianapolis Center
05:59PM 39.2686 -81.9181 265° West 372 428 36,000  Level Indianapolis Center
06:00PM 39.2572 -82.0506 264° West 374 430 36,000  Level Indianapolis Center
06:01PM 39.2478 -82.1822 265° West 371 427 36,000  Level Indianapolis Center
06:02PM 39.2411 -82.3144 266° West 372 428 36,000  Level Indianapolis Center
06:03PM 39.2914 -82.4339 299° West 382 440 36,000  Level Indianapolis Center
06:05PM 39.3642 -82.5433 311° West 394 453 36,000  Level Indianapolis Center
06:06PM 39.4444 -82.6694 310° West 388 447 36,000  Level Indianapolis Center
06:07PM 39.5128 -82.7775 309° West 385 443 36,000  Level Indianapolis Center
06:08PM 39.5808 -82.8867 309° West 386 444 36,000  Level Indianapolis Center
06:09PM 39.6500 -82.9975 309° West 391 450 36,000  Level Indianapolis Center
06:10PM 39.7189 -83.1064 309° West 389 448 36,000  Level Indianapolis Center
06:11PM 39.7875 -83.2158 309° West 389 448 36,000  Level Indianapolis Center
06:12PM 39.8558 -83.3233 310° West 387 445 36,000  Level Indianapolis Center
06:13PM 39.9225 -83.4311 309° West 387 445 36,000  Level Indianapolis Center
06:14PM 40.0022 -83.5625 308° West 399 459 36,000  Level Indianapolis Center
06:15PM 40.0717 -83.6742 309° West 397 457 36,000  Level Indianapolis Center
06:16PM 40.1400 -83.7856 309° West 393 452 36,000  Level Indianapolis Center
06:17PM 40.2067 -83.8961 308° West 385 443 36,000  Level Indianapolis Center
06:18PM 40.2753 -84.0089 309° West 391 450 36,000  Level Indianapolis Center
06:19PM 40.3439 -84.1206 309° West 391 450 36,000 -420 Level Indianapolis Center
06:20PM 40.4125 -84.2344 308° West 394 453 35,200 -900 Descending Indianapolis Center
06:21PM 40.4836 -84.3494 309° West 401 461 34,200 -600 Descending Indianapolis Center
06:22PM 40.5517 -84.4653 308° West 397 457 34,000 -120 Descending Indianapolis Center
06:23PM 40.6314 -84.6036 307° West 404 465 34,000  Level Indianapolis Center
06:24PM 40.6728 -84.7131 297° West 396 456 34,000  Level Chicago Center
06:25PM 40.7222 -84.8444 296° West 397 457 34,000  Level Chicago Center
06:26PM 40.7708 -84.9731 297° West 395 455 34,000  Level Chicago Center
06:27PM 40.8178 -85.1022 296° West 391 450 34,000 -180 Level Chicago Center
06:28PM 40.8656 -85.2314 296° West 391 450 33,700 -840 Descending Chicago Center
06:29PM 40.9250 -85.3928 296° West 403 464 32,400 -1,140 Descending Chicago Center
06:30PM 40.9742 -85.5239 296° West 398 458 31,400 -1,080 Descending Chicago Center
06:31PM 41.0206 -85.6544 295° West 391 450 30,300 -1,080 Descending Chicago Center
06:32PM 41.0689 -85.7881 296° West 400 460 29,300 -1,020 Descending Chicago Center
06:33PM 41.1200 -85.9289 296° West 419 482 28,200 -1,080 Descending Chicago Center
06:34PM 41.1703 -86.0728 295° West 427 491 27,200 -1,620 Descending Chicago Center
06:35PM 41.2231 -86.2167 296° West 433 498 25,000 -2,340 Descending Chicago Center
06:36PM 41.2722 -86.3578 295° West 424 488 22,400 -2,520 Descending Chicago Center
06:37PM 41.3219 -86.5006 295° West 424 488 19,900 -2,400 Descending Chicago Center
06:38PM 41.3811 -86.6664 295° West 413 475 17,600 -2,100 Descending Chicago Center
06:39PM 41.4292 -86.8003 296° West 409 471 15,700 -1,680 Descending Chicago Center
06:40PM 41.4742 -86.9331 294° West 401 461 14,200 -1,320 Descending Chicago Center
06:41PM 41.5197 -87.0600 296° West 388 447 13,000 -1,080 Descending Chicago Center
06:42PM 41.5611 -87.1842 294° West 374 430 12,000 -720 Descending Chicago Center
06:43PM 41.5833 -87.2500 294° West 365 420 12,000 -420 Level Chicago TRACON
06:43PM 41.6272 -87.3183 311° West 367 422 11,600 -840 Descending Chicago Center
06:44PM 41.6906 -87.4222 309° West 365 420 10,600 -840 Descending Chicago Center
06:45PM 41.7519 -87.5244 309° West 359 413 10,000 -300 Descending Chicago Center
06:46PM 41.8167 -87.6008 319° Northwest 314 361 10,000 -60 Level Chicago Center
06:48PM 41.8875 -87.6614 328° Northwest 307 353 9,900 -480 Descending Chicago Center
06:48PM 41.9500 -87.7167 327° Northwest 258 297 9,100 -480 Descending Chicago TRACON
06:49PM 42.0167 -87.7667 331° Northwest 235 270 9,000 -300 Descending Chicago TRACON
06:50PM 42.0667 -87.8167 323° Northwest 221 254 8,600 -780 Descending Chicago TRACON
06:51PM 42.1167 -87.8500 334° Northwest 220 253 7,500 -840 Descending Chicago TRACON
06:52PM 42.1667 -87.9000 323° Northwest 206 237 7,000 -300 Descending Chicago TRACON
06:53PM 42.2000 -87.9500 312° West 208 239 7,000 -720 Level Chicago TRACON
06:54PM 42.1833 -88.0167 251° West 187 215 5,600 -1,440 Descending Chicago TRACON
06:55PM 42.1500 -88.0500 217° Southwest 189 217 4,300 -1,320 Descending Chicago TRACON
06:56PM 42.1272 -88.0511 182° South 193 222 4,000 -900 Descending Chicago Center